Terminal Aerodrome Forecast
Issued by NWS St Louis, MO

Home | Current Version | Previous Version | Graphics & Text | Print | Product List | Glossary On
Versions: 1 2 3 4 5 6 7 8 9 10 11 12 13 14 15 16 17 18 19 20 21
000
FTUS43 KLSX 240300 AAA
TAFSTL
TAF AMD
KSTL 240313Z 2403/2506 VRB04KT P6SM SCT025 BKN100
     FM240600 34006KT P6SM BKN025
     FM240900 33008KT 5SM -RA OVC015
     FM241200 31010KT 3SM -RASN SCT008 OVC015
     FM241400 30010KT 2SM -SN OVC008
     FM241700 28012G20KT P6SM -RASN OVC008
     FM242300 27010KT P6SM OVC008=

USA.gov is the U.S. government's official web portal to all federal, state and local government web resources and services.